Time;durP1;ratioP1;P1;durP2;ratioP2;P2;SDS_P1;SDS_P2;PMS_P1;PMS_P2;Temp;Humidity;BMP_temperature;BMP_pressure;BME280_temperature;BME280_humidity;BME280_pressure;Samples;Min_cycle;Max_cycle;Signal;HPM_P1;HPM_P2
2021/03/15 00:00:29;;;;;;;7.10;5.10;;;;;;;1.37;100.00;95758.13;1028040;28;20064;-56
2021/03/15 00:01:00;;;;;;;8.40;5.15;;;;;;;1.38;100.00;95757.19;1027982;28;20517;-57
2021/03/15 00:01:31;;;;;;;9.13;5.75;;;;;;;1.39;100.00;95761.44;1023997;29;20058;-55
2021/03/15 00:02:02;;;;;;;10.45;6.30;;;;;;;1.40;100.00;95760.50;1027989;28;20084;-54
2021/03/15 00:02:32;;;;;;;10.98;6.22;;;;;;;1.36;100.00;95765.16;1027893;28;20184;-57
2021/03/15 00:03:03;;;;;;;8.88;5.53;;;;;;;1.36;100.00;95762.53;1027989;28;20023;-57
2021/03/15 00:03:34;;;;;;;9.32;5.88;;;;;;;1.36;100.00;95766.91;1020071;29;20036;-56
2021/03/15 00:04:05;;;;;;;9.45;5.57;;;;;;;1.37;100.00;95761.56;1031976;28;20049;-56
2021/03/15 00:04:36;;;;;;;8.60;5.28;;;;;;;1.38;100.00;95759.78;1023935;28;20023;-56
2021/03/15 00:05:08;;;;;;;9.85;6.65;;;;;;;1.38;100.00;95759.78;1031972;28;20014;-56
2021/03/15 00:05:38;;;;;;;7.43;5.32;;;;;;;1.35;100.00;95760.84;1023992;29;20029;-56
2021/03/15 00:06:09;;;;;;;8.27;5.63;;;;;;;1.37;100.00;95764.19;1027899;28;20026;-53
2021/03/15 00:06:40;;;;;;;8.10;5.85;;;;;;;1.40;100.00;95763.13;1032010;28;20129;-56
2021/03/15 00:07:10;;;;;;;10.82;6.25;;;;;;;1.39;100.00;95767.50;1020007;29;20055;-55
2021/03/15 00:07:41;;;;;;;8.85;6.18;;;;;;;1.40;100.00;95763.94;1024114;28;20027;-56
2021/03/15 00:08:12;;;;;;;8.88;6.03;;;;;;;1.40;100.00;95765.72;1036039;28;20072;-55
2021/03/15 00:08:43;;;;;;;10.40;5.53;;;;;;;1.41;100.00;95772.59;1027933;28;20177;-56
2021/03/15 00:09:13;;;;;;;8.65;5.70;;;;;;;1.35;100.00;95773.94;1023898;28;20019;-56
2021/03/15 00:09:44;;;;;;;9.90;5.70;;;;;;;1.37;100.00;95769.41;1028003;28;20022;-56
2021/03/15 00:10:15;;;;;;;9.38;6.25;;;;;;;1.37;100.00;95771.19;1027958;28;20018;-56
2021/03/15 00:10:45;;;;;;;9.25;5.72;;;;;;;1.35;100.00;95765.28;1023898;29;20056;-56
2021/03/15 00:11:16;;;;;;;9.13;6.22;;;;;;;1.37;100.00;95765.97;1023988;29;20577;-56
2021/03/15 00:11:47;;;;;;;12.55;6.40;;;;;;;1.36;100.00;95762.53;1028012;28;20019;-57
2021/03/15 00:12:18;;;;;;;8.48;6.20;;;;;;;1.35;100.00;95771.31;1023924;28;20020;-56
2021/03/15 00:12:48;;;;;;;8.85;5.93;;;;;;;1.37;100.00;95768.59;1023868;28;20019;-56
2021/03/15 00:13:20;;;;;;;9.25;6.45;;;;;;;1.33;100.00;95751.50;1023913;28;20023;-56
2021/03/15 00:13:50;;;;;;;12.20;6.43;;;;;;;1.35;100.00;95765.28;1023786;29;20576;-56
2021/03/15 00:14:21;;;;;;;10.15;6.53;;;;;;;1.37;100.00;95763.34;1027944;28;20163;-56
2021/03/15 00:14:52;;;;;;;8.40;5.70;;;;;;;1.35;100.00;95763.47;1027868;28;20018;-56
2021/03/15 00:15:23;;;;;;;8.90;6.00;;;;;;;1.37;100.00;95766.78;1019934;29;20429;-56
2021/03/15 00:15:55;;;;;;;9.68;6.05;;;;;;;1.37;100.00;95765.97;1027900;28;20037;-56
2021/03/15 00:16:26;;;;;;;9.52;6.55;;;;;;;1.37;100.00;95772.03;1027837;28;20019;-56
2021/03/15 00:16:56;;;;;;;9.05;5.93;;;;;;;1.37;100.00;95763.34;1027808;28;20413;-56
2021/03/15 00:17:27;;;;;;;8.35;5.55;;;;;;;1.38;100.00;95763.22;1027860;28;20046;-57
2021/03/15 00:17:58;;;;;;;9.18;6.15;;;;;;;1.40;100.00;95763.13;1027843;28;20122;-56
2021/03/15 00:18:30;;;;;;;8.23;5.90;;;;;;;1.40;100.00;95768.34;1027914;28;20033;-56
2021/03/15 00:19:01;;;;;;;12.25;8.25;;;;;;;1.39;100.00;95766.66;1031898;28;20025;-56
2021/03/15 00:19:31;;;;;;;9.13;5.68;;;;;;;1.28;100.00;95749.22;1019899;29;20027;-55
2021/03/15 00:20:04;;;;;;;8.32;6.10;;;;;;;1.40;100.00;95763.13;1031940;28;20022;-57
2021/03/15 00:20:35;;;;;;;8.73;5.72;;;;;;;1.40;100.00;95768.34;1027936;28;20023;-56
2021/03/15 00:21:06;;;;;;;10.00;5.47;;;;;;;1.39;100.00;95766.66;1019978;28;20114;-56
2021/03/15 00:21:37;;;;;;;9.43;6.35;;;;;;;1.36;100.00;95764.28;1031984;28;20074;-56
2021/03/15 00:22:08;;;;;;;8.35;6.20;;;;;;;1.39;100.00;95764.06;1019986;28;20402;-55
2021/03/15 00:22:39;;;;;;;8.85;6.40;;;;;;;1.37;100.00;95779.06;1027895;28;20022;-56
2021/03/15 00:23:10;;;;;;;10.95;6.82;;;;;;;1.38;100.00;95770.25;1023983;28;20035;-54
2021/03/15 00:23:41;;;;;;;11.35;6.47;;;;;;;1.39;100.00;95770.09;1019918;28;20494;-56
2021/03/15 00:24:12;;;;;;;8.55;5.93;;;;;;;1.41;100.00;95767.38;1027908;28;20019;-57
2021/03/15 00:24:43;;;;;;;10.20;6.32;;;;;;;1.39;100.00;95767.50;1035993;28;20061;-56
2021/03/15 00:25:15;;;;;;;10.80;6.20;;;;;;;1.39;100.00;95767.50;1031881;28;20015;-56
2021/03/15 00:25:46;;;;;;;11.57;6.75;;;;;;;1.40;100.00;95773.56;1031556;28;20116;-55
2021/03/15 00:26:17;;;;;;;8.60;6.10;;;;;;;1.40;100.00;95763.13;1035866;28;20051;-56
2021/03/15 00:26:47;;;;;;;9.52;6.32;;;;;;;1.41;100.00;95764.75;1032000;28;20038;-56
2021/03/15 00:27:19;;;;;;;10.02;6.40;;;;;;;1.43;100.00;95761.06;1019965;29;20482;-56
2021/03/15 00:27:50;;;;;;;8.88;6.28;;;;;;;1.44;100.00;95769.75;1027920;28;20034;-56
2021/03/15 00:28:21;;;;;;;8.25;6.18;;;;;;;1.40;100.00;95768.34;1032009;28;20538;-56
2021/03/15 00:28:51;;;;;;;12.13;6.72;;;;;;;1.42;100.00;95769.03;1027936;28;20126;-56
2021/03/15 00:29:22;;;;;;;9.80;6.30;;;;;;;1.44;100.00;95769.75;1027979;28;20114;-55
2021/03/15 00:29:53;;;;;;;11.98;6.38;;;;;;;1.43;100.00;95765.47;1027943;28;20389;-57
2021/03/15 00:30:24;;;;;;;9.48;6.35;;;;;;;1.43;100.00;95774.16;1027926;28;20018;-56
2021/03/15 00:30:55;;;;;;;10.63;5.88;;;;;;;1.44;100.00;95767.13;1019983;29;20584;-56
2021/03/15 00:31:26;;;;;;;7.95;5.65;;;;;;;1.42;100.00;95775.09;1023871;29;20023;-56
2021/03/15 00:31:57;;;;;;;10.07;5.90;;;;;;;1.45;100.00;95772.25;1036026;28;20383;-54
2021/03/15 00:32:27;;;;;;;9.18;6.10;;;;;;;1.36;100.00;95767.75;1035948;28;20010;-57
2021/03/15 00:32:58;;;;;;;10.02;6.00;;;;;;;1.44;100.00;95774.97;1031876;28;20022;-54
2021/03/15 00:33:29;;;;;;;9.40;6.00;;;;;;;1.41;100.00;95767.38;1027796;28;20131;-53
2021/03/15 00:34:00;;;;;;;9.57;6.50;;;;;;;1.42;100.00;95769.03;1023700;28;20556;-56
2021/03/15 00:34:33;;;;;;;11.40;6.38;;;;;;;1.42;100.00;95772.50;1031870;28;20014;-56
2021/03/15 00:35:05;;;;;;;11.55;6.80;;;;;;;1.40;100.00;95774.41;1027876;28;20066;-56
2021/03/15 00:35:36;;;;;;;9.85;6.00;;;;;;;1.42;100.00;95774.28;1023862;28;20023;-56
2021/03/15 00:36:08;;;;;;;9.48;6.50;;;;;;;1.42;100.00;95771.66;1027383;28;20018;-57
2021/03/15 00:36:38;;;;;;;9.25;6.18;;;;;;;1.41;100.00;95777.84;1031871;28;20022;-56
2021/03/15 00:37:09;;;;;;;10.55;6.15;;;;;;;1.40;100.00;95770.97;1027992;28;20130;-56
2021/03/15 00:37:40;;;;;;;9.27;5.90;;;;;;;1.40;100.00;95773.56;1027786;28;20473;-56
2021/03/15 00:38:11;;;;;;;10.93;6.22;;;;;;;1.40;100.00;95779.63;1023847;28;20019;-56
2021/03/15 00:38:42;;;;;;;11.45;6.65;;;;;;;1.40;100.00;95776.19;1019854;29;20446;-54
2021/03/15 00:39:13;;;;;;;9.48;6.07;;;;;;;1.39;100.00;95777.97;1031866;28;20026;-56
2021/03/15 00:39:44;;;;;;;10.98;5.97;;;;;;;1.41;100.00;95772.59;1023934;28;20023;-56
2021/03/15 00:40:18;;;;;;;8.88;5.68;;;;;;;1.39;100.00;95771.91;1027804;28;20054;-56
2021/03/15 00:40:49;;;;;;;9.77;6.38;;;;;;;1.40;100.00;95770.97;1027886;28;20428;-56
2021/03/15 00:41:20;;;;;;;17.50;7.57;;;;;;;1.40;100.00;95769.16;1027768;28;20086;-56
2021/03/15 00:41:50;;;;;;;8.95;5.97;;;;;;;1.43;100.00;95778.53;1035901;28;20117;-56
2021/03/15 00:42:21;;;;;;;8.88;5.55;;;;;;;1.42;100.00;95775.09;1031708;28;20117;-56
2021/03/15 00:42:53;;;;;;;8.80;6.10;;;;;;;1.45;100.00;95772.25;1027879;28;20015;-56
2021/03/15 00:43:23;;;;;;;9.75;5.45;;;;;;;1.44;100.00;95774.97;1027812;28;20061;-54
2021/03/15 00:43:54;;;;;;;8.73;6.13;;;;;;;1.45;100.00;95771.41;1031724;28;20030;-57
2021/03/15 00:44:25;;;;;;;8.50;5.75;;;;;;;1.46;100.00;95773.91;1035732;28;20043;-57
2021/03/15 00:44:56;;;;;;;7.55;5.00;;;;;;;1.47;100.00;95767.72;1027750;28;20051;-55
2021/03/15 00:45:27;;;;;;;8.38;5.72;;;;;;;1.45;100.00;95768.81;1035880;28;20014;-56
2021/03/15 00:45:58;;;;;;;9.05;5.57;;;;;;;1.44;100.00;95764.50;1027899;28;20511;-55
2021/03/15 00:46:28;;;;;;;9.15;5.80;;;;;;;1.49;100.00;95770.22;1035720;28;20105;-56
2021/03/15 00:46:59;;;;;;;10.70;6.07;;;;;;;1.49;100.00;95763.19;1019787;29;20024;-56
2021/03/15 00:47:30;;;;;;;11.85;6.03;;;;;;;1.50;100.00;95770.09;1027954;28;20015;-54
2021/03/15 00:48:01;;;;;;;10.35;5.65;;;;;;;1.52;100.00;95769.16;1023808;29;20098;-55
2021/03/15 00:48:32;;;;;;;8.73;5.60;;;;;;;1.52;100.00;95764.72;1023815;28;20014;-56
2021/03/15 00:49:03;;;;;;;10.98;6.57;;;;;;;1.41;100.00;95749.06;1023799;28;20018;-56
2021/03/15 00:49:33;;;;;;;7.95;5.47;;;;;;;1.50;100.00;95764.03;1027825;28;20014;-56
2021/03/15 00:50:11;;;;;;;8.77;5.30;;;;;;;1.54;100.00;95768.06;1023842;28;20015;-56
2021/03/15 00:50:42;;;;;;;9.55;5.50;;;;;;;1.55;100.00;95766.25;1023786;28;20015;-56
2021/03/15 00:51:13;;;;;;;7.63;5.20;;;;;;;1.53;100.00;95758.53;1031825;28;20046;-56
2021/03/15 00:51:43;;;;;;;9.25;5.70;;;;;;;1.54;100.00;95765.44;1023891;29;20027;-56
2021/03/15 00:52:14;;;;;;;9.77;5.82;;;;;;;1.50;100.00;95757.00;1019863;28;20047;-56
2021/03/15 00:52:45;;;;;;;8.98;5.75;;;;;;;1.53;100.00;95768.16;1027722;28;20015;-56
2021/03/15 00:53:16;;;;;;;7.93;5.63;;;;;;;1.56;100.00;95763.50;1023835;29;20012;-54
2021/03/15 00:53:47;;;;;;;8.85;5.55;;;;;;;1.54;100.00;95768.06;1027634;28;20011;-57
2021/03/15 00:54:18;;;;;;;8.48;5.63;;;;;;;1.57;100.00;95767.81;1031867;28;20015;-56
2021/03/15 00:54:49;;;;;;;9.13;5.25;;;;;;;1.57;100.00;95767.81;1019775;28;20058;-56
2021/03/15 00:55:20;;;;;;;12.73;5.93;;;;;;;1.60;100.00;95766.72;1031778;28;20085;-56
2021/03/15 00:55:51;;;;;;;7.75;5.20;;;;;;;1.57;100.00;95759.97;1027842;28;20046;-56
2021/03/15 00:56:22;;;;;;;9.43;5.57;;;;;;;1.60;100.00;95764.94;1031757;28;20011;-57
2021/03/15 00:56:53;;;;;;;8.15;5.47;;;;;;;1.60;100.00;95764.94;1031765;28;20041;-56
2021/03/15 00:57:23;;;;;;;8.18;5.60;;;;;;;1.59;100.00;95758.03;1027811;28;20010;-57
2021/03/15 00:57:54;;;;;;;8.48;5.60;;;;;;;1.60;100.00;95754.47;1020019;29;20027;-57
2021/03/15 00:58:25;;;;;;;7.15;5.40;;;;;;;1.62;100.00;95755.19;1027698;28;20038;-55
2021/03/15 00:58:56;;;;;;;7.50;5.07;;;;;;;1.61;100.00;95758.75;1031793;28;20014;-57
2021/03/15 00:59:27;;;;;;;9.05;5.80;;;;;;;1.60;100.00;95743.16;1027657;28;20019;-56
2021/03/15 00:59:57;;;;;;;8.55;5.32;;;;;;;1.57;100.00;95752.09;1035829;28;20052;-56
2021/03/15 01:00:30;;;;;;;11.25;5.85;;;;;;;1.59;100.00;95747.56;1035979;28;20097;-56
2021/03/15 01:01:02;;;;;;;8.93;5.80;;;;;;;1.61;100.00;95750.88;1031710;28;20028;-55
2021/03/15 01:01:32;;;;;;;9.25;5.70;;;;;;;1.60;100.00;95744.00;1027819;28;20018;-56
2021/03/15 01:02:03;;;;;;;10.70;5.72;;;;;;;1.58;100.00;95743.28;1027779;28;20014;-55
2021/03/15 01:02:34;;;;;;;8.57;5.47;;;;;;;1.55;100.00;95755.78;1031770;28;20030;-56
2021/03/15 01:03:05;;;;;;;9.00;5.95;;;;;;;1.55;100.00;95756.63;1035918;28;20361;-56
2021/03/15 01:03:35;;;;;;;9.02;5.88;;;;;;;1.55;100.00;95745.31;1031583;28;20018;-56
2021/03/15 01:04:06;;;;;;;9.55;5.95;;;;;;;1.54;100.00;95759.38;1027774;28;20042;-55
2021/03/15 01:04:37;;;;;;;8.38;5.30;;;;;;;1.53;100.00;95753.28;1031773;28;20369;-57
2021/03/15 01:05:09;;;;;;;9.98;5.53;;;;;;;1.49;100.00;95752.72;1031789;28;20014;-56
2021/03/15 01:05:42;;;;;;;8.65;5.75;;;;;;;1.44;100.00;95749.63;1027842;28;20473;-56
2021/03/15 01:06:14;;;;;;;10.40;5.60;;;;;;;1.44;100.00;95754.88;1023800;28;20026;-56
2021/03/15 01:06:44;;;;;;;9.43;5.75;;;;;;;1.41;100.00;95749.06;1031857;28;20045;-56
2021/03/15 01:07:15;;;;;;;9.05;5.65;;;;;;;1.38;100.00;95751.94;1027762;28;20500;-56
2021/03/15 01:07:46;;;;;;;9.70;6.00;;;;;;;1.40;100.00;95747.41;1023760;29;20026;-55
2021/03/15 01:08:17;;;;;;;9.15;5.53;;;;;;;1.30;100.00;95742.91;1027834;28;20113;-56
2021/03/15 01:08:48;;;;;;;10.15;6.10;;;;;;;1.34;100.00;95755.75;1027730;28;20113;-56
2021/03/15 01:09:18;;;;;;;7.50;5.20;;;;;;;1.36;100.00;95741.59;1027694;28;20026;-55
2021/03/15 01:09:49;;;;;;;10.35;5.70;;;;;;;1.37;100.00;95747.66;1027896;28;20019;-57
2021/03/15 01:10:22;;;;;;;8.80;5.47;;;;;;;1.38;100.00;95744.09;1027815;28;20471;-56
2021/03/15 01:10:53;;;;;;;9.27;5.88;;;;;;;1.36;100.00;95746.84;1031814;28;20023;-55
2021/03/15 01:11:24;;;;;;;10.18;5.93;;;;;;;1.33;100.00;95746.25;1027681;28;20473;-56
2021/03/15 01:11:55;;;;;;;9.40;5.88;;;;;;;1.35;100.00;95749.56;1031799;28;20337;-56
2021/03/15 01:12:26;;;;;;;10.27;5.45;;;;;;;1.31;100.00;95746.38;1023758;29;20058;-54
2021/03/15 01:12:56;;;;;;;8.30;5.53;;;;;;;1.31;100.00;95743.75;1027764;28;20022;-56
2021/03/15 01:13:27;;;;;;;10.70;5.88;;;;;;;1.33;100.00;95738.41;1031767;28;20011;-56
2021/03/15 01:13:58;;;;;;;12.38;5.80;;;;;;;1.28;100.00;95739.59;1031635;28;20118;-56
2021/03/15 01:14:29;;;;;;;9.82;6.05;;;;;;;1.27;100.00;95732.72;1027932;28;20073;-56
2021/03/15 01:14:59;;;;;;;9.27;6.22;;;;;;;1.28;100.00;95734.34;1023790;28;20015;-56
2021/03/15 01:15:30;;;;;;;9.02;6.20;;;;;;;1.29;100.00;95735.22;1031718;28;20018;-56
2021/03/15 01:16:01;;;;;;;9.05;5.75;;;;;;;1.26;100.00;95738.06;1031690;28;20018;-56
2021/03/15 01:16:31;;;;;;;11.20;5.93;;;;;;;1.26;100.00;95735.47;1035735;28;20018;-57
2021/03/15 01:17:04;;;;;;;9.52;6.25;;;;;;;1.24;100.00;95737.38;1039930;28;20017;-56
2021/03/15 01:17:35;;;;;;;10.25;5.88;;;;;;;1.23;100.00;95736.50;1031757;28;20014;-55
2021/03/15 01:18:06;;;;;;;9.30;5.60;;;;;;;1.20;100.00;95730.69;1019783;29;20497;-56
2021/03/15 01:18:37;;;;;;;9.48;6.10;;;;;;;1.19;100.00;95732.50;1031746;28;20025;-56
2021/03/15 01:19:07;;;;;;;12.45;6.82;;;;;;;1.17;100.00;95737.03;1027767;28;20053;-56
2021/03/15 01:19:38;;;;;;;9.70;6.30;;;;;;;1.16;100.00;95730.13;1031906;28;20543;-57
2021/03/15 01:20:10;;;;;;;10.38;6.07;;;;;;;1.17;100.00;95734.41;1019765;28;20027;-56
2021/03/15 01:20:41;;;;;;;9.32;6.00;;;;;;;1.15;100.00;95733.72;1023794;28;20110;-56
2021/03/15 01:21:13;;;;;;;10.20;5.90;;;;;;;1.14;100.00;95742.50;1027907;28;20046;-56
2021/03/15 01:21:44;;;;;;;10.05;5.82;;;;;;;1.12;100.00;95740.00;1033608;28;20018;-56
2021/03/15 01:22:15;;;;;;;11.50;6.03;;;;;;;1.11;100.00;95738.31;1029950;28;20110;-55
2021/03/15 01:22:46;;;;;;;9.48;5.80;;;;;;;1.11;100.00;95742.72;1038808;28;20169;-55
2021/03/15 01:23:16;;;;;;;14.00;6.20;;;;;;;1.10;100.00;95741.09;1026264;29;20073;-55
2021/03/15 01:23:48;;;;;;;8.88;6.28;;;;;;;1.07;100.00;95736.09;1034053;28;20037;-57
2021/03/15 01:24:18;;;;;;;9.18;6.10;;;;;;;1.08;100.00;95737.75;1018318;29;20682;-56
2021/03/15 01:24:49;;;;;;;10.00;5.70;;;;;;;1.09;100.00;95739.41;1026299;29;20015;-57
2021/03/15 01:25:23;;;;;;;8.95;6.03;;;;;;;1.07;100.00;95736.91;1026420;29;20027;-55
2021/03/15 01:25:54;;;;;;;8.75;5.78;;;;;;;1.07;100.00;95736.91;1030612;28;20404;-56
2021/03/15 01:26:25;;;;;;;10.25;6.10;;;;;;;1.07;100.00;95738.72;1026221;29;20095;-54
2021/03/15 01:26:56;;;;;;;11.68;6.30;;;;;;;1.05;100.00;95738.00;1034170;28;20098;-56
2021/03/15 01:27:27;;;;;;;12.07;6.35;;;;;;;1.04;100.00;95738.94;1032685;28;20028;-55
2021/03/15 01:27:58;;;;;;;10.35;6.30;;;;;;;1.02;100.00;95741.69;1027765;28;20481;-56
2021/03/15 01:28:29;;;;;;;9.82;6.15;;;;;;;1.00;100.00;95746.22;1019716;28;20086;-56
2021/03/15 01:29:00;;;;;;;12.88;7.15;;;;;;;1.01;100.00;95741.81;1031873;28;20447;-56
2021/03/15 01:29:31;;;;;;;9.98;5.43;;;;;;;1.02;100.00;95735.63;1035870;28;20056;-56
2021/03/15 01:30:07;;;;;;;10.02;6.28;;;;;;;1.03;100.00;95737.28;1027800;28;20027;-55
2021/03/15 01:30:39;;;;;;;11.73;6.47;;;;;;;1.03;100.00;95735.50;1031759;28;20042;-57
2021/03/15 01:31:09;;;;;;;9.35;6.13;;;;;;;1.02;100.00;95727.78;1031739;28;20141;-56
2021/03/15 01:31:40;;;;;;;10.80;5.93;;;;;;;0.97;100.00;95719.47;1035855;28;20025;-56
2021/03/15 01:32:11;;;;;;;12.20;6.80;;;;;;;1.04;100.00;95733.72;1031696;28;20124;-56
2021/03/15 01:32:42;;;;;;;9.48;6.32;;;;;;;1.04;100.00;95729.31;1023647;28;20066;-56
2021/03/15 01:33:13;;;;;;;9.57;6.07;;;;;;;1.03;100.00;95732.03;1031761;28;20064;-56
2021/03/15 01:33:44;;;;;;;11.20;6.15;;;;;;;1.01;100.00;95732.19;1035392;28;20049;-56
2021/03/15 01:34:14;;;;;;;10.05;6.35;;;;;;;1.00;100.00;95732.31;1023557;29;20041;-56
2021/03/15 01:34:45;;;;;;;13.00;6.97;;;;;;;1.03;100.00;95730.28;1031675;28;20078;-56
2021/03/15 01:35:16;;;;;;;9.30;6.07;;;;;;;1.04;100.00;95731.09;1031620;28;20023;-56
2021/03/15 01:35:48;;;;;;;9.52;5.95;;;;;;;1.05;100.00;95730.16;1031743;28;20085;-56
2021/03/15 01:36:19;;;;;;;13.00;6.88;;;;;;;1.07;100.00;95728.25;1031646;28;20034;-56
2021/03/15 01:36:50;;;;;;;11.43;6.45;;;;;;;1.08;100.00;95728.13;1031715;28;20029;-57
2021/03/15 01:37:21;;;;;;;10.35;6.10;;;;;;;1.07;100.00;95725.63;1031682;28;20023;-57
2021/03/15 01:37:52;;;;;;;11.98;7.50;;;;;;;1.07;100.00;95721.22;1019943;29;20034;-57
2021/03/15 01:38:23;;;;;;;10.52;6.13;;;;;;;1.10;100.00;95728.84;1027625;28;20476;-56
2021/03/15 01:38:53;;;;;;;12.70;6.45;;;;;;;1.08;100.00;95732.50;1031682;28;20037;-56
2021/03/15 01:39:25;;;;;;;11.88;6.70;;;;;;;1.09;100.00;95729.78;1023717;28;20012;-56
2021/03/15 01:39:55;;;;;;;9.93;5.78;;;;;;;1.10;100.00;95730.63;1031669;28;20018;-53
2021/03/15 01:40:26;;;;;;;10.57;6.05;;;;;;;1.11;100.00;95727.88;1023672;29;20019;-56
2021/03/15 01:40:57;;;;;;;12.32;6.43;;;;;;;1.10;100.00;95725.41;1031551;28;20059;-56
2021/03/15 01:41:28;;;;;;;8.93;6.18;;;;;;;1.13;100.00;95725.13;1023662;29;20012;-55
2021/03/15 01:42:00;;;;;;;8.80;5.93;;;;;;;1.17;100.00;95728.31;1023738;29;20549;-56
2021/03/15 01:42:30;;;;;;;7.95;5.68;;;;;;;1.13;100.00;95725.13;1035703;28;20021;-56
2021/03/15 01:43:01;;;;;;;10.65;6.63;;;;;;;1.13;100.00;95719.91;1023654;28;20019;-56
2021/03/15 01:43:33;;;;;;;9.15;6.10;;;;;;;1.16;100.00;95726.69;1035160;28;20018;-58
2021/03/15 01:44:03;;;;;;;9.95;6.13;;;;;;;1.14;100.00;95718.97;1027574;28;20022;-56
2021/03/15 01:44:34;;;;;;;9.52;5.68;;;;;;;1.15;100.00;95719.78;1027751;28;20022;-56
2021/03/15 01:45:06;;;;;;;9.13;5.88;;;;;;;1.08;100.00;95702.00;1027465;28;20026;-56
2021/03/15 01:45:37;;;;;;;10.55;6.57;;;;;;;1.17;100.00;95718.72;1023666;29;20071;-56
2021/03/15 01:46:07;;;;;;;11.82;6.28;;;;;;;1.17;100.00;95721.34;1031744;28;20022;-55
2021/03/15 01:46:39;;;;;;;10.10;5.82;;;;;;;1.15;100.00;95723.25;1027667;28;20018;-56
2021/03/15 01:47:09;;;;;;;10.18;6.00;;;;;;;1.14;100.00;95713.72;1031642;28;20045;-55
2021/03/15 01:47:41;;;;;;;10.20;6.45;;;;;;;1.15;100.00;95718.03;1035764;28;20026;-56
2021/03/15 01:48:13;;;;;;;11.40;6.70;;;;;;;1.16;100.00;95718.84;1023767;28;20424;-56
2021/03/15 01:48:44;;;;;;;9.85;6.22;;;;;;;1.16;100.00;95719.66;1031721;28;20018;-55
2021/03/15 01:49:15;;;;;;;10.15;5.82;;;;;;;1.16;100.00;95719.66;1027520;28;20484;-55
2021/03/15 01:49:46;;;;;;;8.80;5.65;;;;;;;1.15;100.00;95720.63;1015807;29;20020;-56
2021/03/15 01:50:17;;;;;;;12.73;6.85;;;;;;;1.15;100.00;95717.16;1027634;28;20030;-56
2021/03/15 01:50:49;;;;;;;10.23;6.07;;;;;;;1.13;100.00;95719.91;1023596;28;20027;-56
2021/03/15 01:51:20;;;;;;;9.93;5.70;;;;;;;1.12;100.00;95723.50;1019668;29;20054;-55
2021/03/15 01:51:51;;;;;;;12.05;6.35;;;;;;;1.10;100.00;95714.94;1019721;28;20031;-55
2021/03/15 01:52:21;;;;;;;12.10;6.03;;;;;;;1.15;100.00;95719.78;1027701;28;20105;-56
2021/03/15 01:52:53;;;;;;;10.63;5.43;;;;;;;1.12;100.00;95713.84;1019670;28;20429;-56
2021/03/15 01:53:24;;;;;;;11.18;6.10;;;;;;;1.13;100.00;95714.66;1027458;28;20022;-56
2021/03/15 01:53:54;;;;;;;7.80;5.28;;;;;;;1.09;100.00;95715.88;1027449;28;20113;-56
2021/03/15 01:54:25;;;;;;;9.18;5.90;;;;;;;1.13;100.00;95709.44;1023723;29;20543;-56
2021/03/15 01:54:56;;;;;;;9.30;6.40;;;;;;;1.15;100.00;95707.56;1023605;29;20031;-54
2021/03/15 01:55:27;;;;;;;14.73;5.50;;;;;;;1.13;100.00;95706.81;1027491;28;20034;-56
2021/03/15 01:55:57;;;;;;;9.80;6.07;;;;;;;1.13;100.00;95710.28;1019780;28;20028;-55
2021/03/15 01:56:28;;;;;;;12.77;5.80;;;;;;;1.12;100.00;95707.78;1031596;28;20019;-55
2021/03/15 01:56:59;;;;;;;9.30;5.75;;;;;;;1.13;100.00;95709.44;1023747;28;20371;-56
2021/03/15 01:57:30;;;;;;;9.50;5.90;;;;;;;1.12;100.00;95705.19;1023606;29;20027;-56
2021/03/15 01:58:00;;;;;;;9.45;5.75;;;;;;;1.12;100.00;95707.78;1027619;28;20125;-56
2021/03/15 01:58:31;;;;;;;9.25;5.97;;;;;;;1.13;100.00;95702.44;1027667;28;20023;-56
2021/03/15 01:59:02;;;;;;;8.30;5.68;;;;;;;1.15;100.00;95707.56;1031691;28;20053;-55
2021/03/15 01:59:33;;;;;;;9.05;5.28;;;;;;;1.11;100.00;95706.94;1027607;28;20506;-56
2021/03/15 02:00:05;;;;;;;10.60;6.15;;;;;;;1.12;100.00;95698.16;1035666;28;20022;-56
2021/03/15 02:00:35;;;;;;;9.13;5.95;;;;;;;1.12;100.00;95699.94;1027616;28;20038;-56
2021/03/15 02:01:06;;;;;;;8.73;5.25;;;;;;;1.11;100.00;95706.94;1023615;29;20527;-57
2021/03/15 02:01:37;;;;;;;9.80;5.18;;;;;;;1.12;100.00;95713.03;1027465;28;20592;-56
2021/03/15 02:02:08;;;;;;;12.15;5.50;;;;;;;1.12;100.00;95707.78;1023626;29;20644;-56
2021/03/15 02:02:41;;;;;;;8.45;5.25;;;;;;;1.11;100.00;95706.94;1035691;28;20038;-57
2021/03/15 02:03:12;;;;;;;10.77;5.07;;;;;;;1.10;100.00;95702.69;1023593;28;20119;-56
2021/03/15 02:03:44;;;;;;;9.63;5.57;;;;;;;1.09;100.00;95706.25;1027322;28;20033;-56
2021/03/15 02:04:15;;;;;;;10.90;6.05;;;;;;;1.10;100.00;95701.88;1031661;28;20488;-56
2021/03/15 02:04:46;;;;;;;10.57;6.22;;;;;;;1.09;100.00;95702.81;1027604;28;20019;-56
2021/03/15 02:05:17;;;;;;;9.60;5.95;;;;;;;1.04;100.00;95692.72;1031552;28;20044;-55
2021/03/15 02:05:47;;;;;;;8.75;5.10;;;;;;;1.09;100.00;95698.41;1023559;28;20039;-56
2021/03/15 02:06:18;;;;;;;10.18;5.53;;;;;;;1.11;100.00;95701.72;1027521;28;20151;-56
2021/03/15 02:06:49;;;;;;;10.65;6.25;;;;;;;1.09;100.00;95711.47;1031595;28;20113;-57
2021/03/15 02:07:20;;;;;;;10.43;5.90;;;;;;;1.09;100.00;95708.84;1031605;28;20032;-55
2021/03/15 02:07:51;;;;;;;10.25;5.50;;;;;;;1.10;100.00;95705.31;1035565;28;20025;-55
2021/03/15 02:08:21;;;;;;;10.30;5.10;;;;;;;1.10;100.00;95704.47;1019638;29;20026;-55
2021/03/15 02:08:52;;;;;;;13.45;5.82;;;;;;;1.12;100.00;95707.78;1019738;29;20115;-56
2021/03/15 02:09:23;;;;;;;11.13;6.28;;;;;;;1.12;100.00;95713.03;1023538;28;20084;-56
2021/03/15 02:09:54;;;;;;;10.75;5.10;;;;;;;1.08;100.00;95695.91;1023511;28;20094;-56
2021/03/15 02:10:25;;;;;;;9.90;5.53;;;;;;;1.12;100.00;95699.94;1023622;28;20020;-56
2021/03/15 02:10:55;;;;;;;7.93;5.15;;;;;;;1.10;100.00;95704.47;1031598;28;20029;-56
2021/03/15 02:11:36;;;;;;;9.15;5.85;;;;;;;1.11;100.00;95698.28;1027564;28;20337;-56
2021/03/15 02:12:27;;;;;;;9.50;5.57;;;;;;;1.12;100.00;95702.56;1023500;29;20019;-56
2021/03/15 02:13:09;;;;;;;8.90;5.35;;;;;;;1.10;100.00;95701.88;1019873;28;20032;-56
2021/03/15 02:13:50;;;;;;;10.82;5.68;;;;;;;1.10;100.00;95702.69;1027592;28;20045;-56
2021/03/15 02:14:24;;;;;;;11.30;5.90;;;;;;;1.11;100.00;95699.09;1027518;28;20029;-56
2021/03/15 02:15:02;;;;;;;8.98;5.60;;;;;;;1.10;100.00;95702.69;1031666;28;20036;-56
2021/03/15 02:15:43;;;;;;;9.13;5.57;;;;;;;1.10;100.00;95704.47;1031657;28;20033;-56
2021/03/15 02:16:28;;;;;;;12.27;5.25;;;;;;;1.05;100.00;95702.22;1030456;28;20036;-55
2021/03/15 02:17:17;;;;;;;9.73;5.32;;;;;;;1.06;100.00;95698.66;1031664;28;20042;-56
2021/03/15 02:17:59;;;;;;;7.90;4.65;;;;;;;1.09;100.00;95706.25;1023715;28;20419;-56
2021/03/15 02:18:40;;;;;;;7.75;5.07;;;;;;;1.06;100.00;95703.91;1027517;28;20023;-56
2021/03/15 02:19:31;;;;;;;8.90;5.60;;;;;;;1.05;100.00;95699.63;1027624;28;20069;-53
2021/03/15 02:20:21;;;;;;;8.90;5.45;;;;;;;1.07;100.00;95699.50;1027498;28;20065;-56
2021/03/15 02:21:11;;;;;;;11.90;5.60;;;;;;;1.10;100.00;95705.31;1027549;28;20042;-56
2021/03/15 02:21:52;;;;;;;7.50;4.53;;;;;;;1.09;100.00;95703.63;1031605;28;20019;-55
2021/03/15 02:22:32;;;;;;;9.80;5.22;;;;;;;1.09;100.00;95705.41;1023494;28;20037;-56
2021/03/15 02:23:13;;;;;;;10.52;5.28;;;;;;;1.07;100.00;95705.53;1031558;28;20045;-56
2021/03/15 02:23:54;;;;;;;9.70;4.80;;;;;;;1.10;100.00;95700.06;1031434;28;20050;-56
2021/03/15 02:24:26;;;;;;;10.55;5.30;;;;;;;1.09;100.00;95700.19;1027558;28;20018;-56
2021/03/15 02:25:17;;;;;;;8.23;4.85;;;;;;;1.09;100.00;95698.41;1027606;28;20531;-57
2021/03/15 02:25:50;;;;;;;10.30;4.90;;;;;;;1.09;100.00;95708.03;1031558;28;20022;-56
2021/03/15 02:26:40;;;;;;;7.25;5.00;;;;;;;1.09;100.00;95697.56;1027399;28;20408;-57
2021/03/15 02:27:22;;;;;;;7.88;4.50;;;;;;;1.10;100.00;95699.25;1023556;28;20067;-56
2021/03/15 02:28:12;;;;;;;12.27;5.60;;;;;;;1.09;100.00;95698.41;1027560;28;20114;-56
2021/03/15 02:28:59;;;;;;;9.65;4.93;;;;;;;1.09;100.00;95700.19;1027540;28;20065;-56
2021/03/15 02:29:49;;;;;;;11.30;4.90;;;;;;;1.09;100.00;95694.97;1027583;28;20042;-55
2021/03/15 02:30:35;;;;;;;7.68;4.97;;;;;;;1.12;100.00;95692.09;1028543;28;20470;-55
2021/03/15 02:31:18;;;;;;;7.93;5.18;;;;;;;1.12;100.00;95692.09;1028295;28;20019;-56